createdAt,value
2018-12-25T00:00:42.793Z,9.00
2018-12-25T00:03:47.767Z,10.97
2018-12-25T00:06:52.662Z,6.27
2018-12-25T00:09:57.358Z,5.53
2018-12-25T00:13:02.201Z,6.12
2018-12-25T00:16:06.826Z,7.17
2018-12-25T00:19:11.457Z,6.73
2018-12-25T00:22:16.165Z,7.25
2018-12-25T00:25:21.145Z,8.53
2018-12-25T00:28:25.779Z,6.53
2018-12-25T00:31:30.728Z,7.70
2018-12-25T00:34:36.915Z,7.83
2018-12-25T00:37:41.893Z,9.20
2018-12-25T00:40:46.850Z,8.63
2018-12-25T00:43:51.520Z,8.43
2018-12-25T00:46:56.604Z,9.40
2018-12-25T00:50:01.253Z,7.40
2018-12-25T00:53:06.162Z,8.37
2018-12-25T00:56:10.791Z,8.87
2018-12-25T00:59:15.426Z,11.07
2018-12-25T01:02:20.086Z,7.33
2018-12-25T01:05:25.066Z,8.73
2018-12-25T01:08:29.749Z,9.30
2018-12-25T01:11:34.389Z,11.60
2018-12-25T01:14:39.279Z,11.13
2018-12-25T01:17:43.942Z,6.93
2018-12-25T01:20:48.602Z,8.60
2018-12-25T01:23:53.242Z,9.50
2018-12-25T01:26:58.115Z,6.73
2018-12-25T01:30:02.732Z,7.17
2018-12-25T01:33:07.666Z,9.00
2018-12-25T01:36:12.505Z,9.87
2018-12-25T01:39:19.108Z,9.43
2018-12-25T01:42:23.821Z,8.30
2018-12-25T01:45:28.828Z,8.20
2018-12-25T01:48:33.781Z,9.50
2018-12-25T01:51:38.479Z,7.30
2018-12-25T01:54:43.185Z,8.00
2018-12-25T01:57:48.211Z,7.20
2018-12-25T02:00:52.817Z,8.67
2018-12-25T02:03:57.864Z,9.17
2018-12-25T02:07:02.497Z,7.77
2018-12-25T02:10:07.428Z,6.90
2018-12-25T02:13:15.640Z,6.93
2018-12-25T02:16:20.262Z,9.93
2018-12-25T02:19:25.256Z,7.10
2018-12-25T02:22:29.905Z,9.00
2018-12-25T02:25:34.968Z,7.37
2018-12-25T02:28:39.909Z,7.63
2018-12-25T02:31:44.560Z,7.57
2018-12-25T02:34:49.428Z,8.40
2018-12-25T02:37:54.427Z,10.47
2018-12-25T02:40:59.048Z,9.00
2018-12-25T02:44:03.702Z,10.77
2018-12-25T02:47:08.332Z,10.53
2018-12-25T02:50:14.762Z,9.97
2018-12-25T02:53:19.389Z,9.50
2018-12-25T02:56:24.073Z,9.08
2018-12-25T02:59:28.945Z,9.57
2018-12-25T03:02:33.998Z,9.70
2018-12-25T03:05:38.601Z,9.50
2018-12-25T03:08:43.358Z,9.55
2018-12-25T03:11:47.986Z,12.30
2018-12-25T03:14:52.731Z,13.40
2018-12-25T03:17:57.522Z,11.00
2018-12-25T03:21:02.515Z,12.33
2018-12-25T03:24:07.158Z,12.80
2018-12-25T03:27:12.045Z,14.20
2018-12-25T03:30:16.774Z,11.27
2018-12-25T03:33:21.663Z,14.50
2018-12-25T03:36:26.642Z,11.37
2018-12-25T03:39:31.282Z,13.70
2018-12-25T03:42:35.913Z,12.53
2018-12-25T03:45:40.755Z,12.67
2018-12-25T03:48:45.382Z,11.20
2018-12-25T03:51:50.031Z,10.37
2018-12-25T03:54:57.395Z,13.50
2018-12-25T03:58:02.323Z,13.70
2018-12-25T04:01:06.961Z,11.27
2018-12-25T04:04:11.911Z,14.43
2018-12-25T04:07:16.616Z,12.50
2018-12-25T04:10:22.450Z,11.77
2018-12-25T04:13:27.413Z,13.53
2018-12-25T04:16:32.457Z,15.83
2018-12-25T04:19:37.611Z,12.67
2018-12-25T04:22:42.268Z,12.67
2018-12-25T04:25:46.897Z,12.17
2018-12-25T04:28:51.831Z,12.33
2018-12-25T04:31:56.991Z,12.93
2018-12-25T04:35:01.874Z,12.17
2018-12-25T04:38:06.532Z,11.55
2018-12-25T04:41:11.492Z,10.00
2018-12-25T04:44:16.188Z,11.93
2018-12-25T04:47:20.834Z,13.57
2018-12-25T04:50:29.456Z,15.17
2018-12-25T04:53:31.936Z,15.50
2018-12-25T04:56:36.568Z,11.63
2018-12-25T04:59:43.105Z,10.80
2018-12-25T05:02:47.740Z,11.50
2018-12-25T05:05:52.370Z,11.10
2018-12-25T05:08:57.071Z,10.73
2018-12-25T05:12:01.962Z,12.80
2018-12-25T05:15:07.376Z,11.57
2018-12-25T05:18:12.025Z,12.80
2018-12-25T05:21:16.637Z,9.80
2018-12-25T05:24:21.294Z,11.27
2018-12-25T05:27:26.009Z,12.40
2018-12-25T05:30:31.035Z,9.77
2018-12-25T05:33:35.826Z,13.10
2018-12-25T05:36:40.518Z,10.67
2018-12-25T05:39:45.397Z,8.27
2018-12-25T05:42:50.123Z,9.33
2018-12-25T05:45:54.744Z,10.07
2018-12-25T05:48:59.397Z,9.95
2018-12-25T05:52:04.277Z,11.60
2018-12-25T05:55:08.903Z,8.97
2018-12-25T05:58:13.791Z,10.13
2018-12-25T06:01:19.851Z,10.50
2018-12-25T06:04:24.724Z,9.70
2018-12-25T06:07:29.654Z,11.33
2018-12-25T06:10:34.323Z,11.60
2018-12-25T06:13:39.025Z,9.97
2018-12-25T06:16:43.928Z,10.80
2018-12-25T06:19:48.634Z,10.30
2018-12-25T06:22:53.273Z,13.07
2018-12-25T06:26:00.885Z,12.07
2018-12-25T06:29:05.788Z,12.90
2018-12-25T06:32:10.524Z,11.25
2018-12-25T06:35:15.145Z,11.47
2018-12-25T06:38:19.794Z,11.60
2018-12-25T06:41:24.425Z,11.75
2018-12-25T06:44:29.510Z,14.97
2018-12-25T06:47:34.550Z,13.90
2018-12-25T06:50:39.215Z,11.43
2018-12-25T06:53:44.048Z,13.47
2018-12-25T06:56:48.733Z,16.10
2018-12-25T06:59:53.384Z,11.33
2018-12-25T07:02:58.043Z,12.17
2018-12-25T07:06:02.736Z,10.73
2018-12-25T07:09:09.096Z,13.03
2018-12-25T07:12:15.196Z,9.90
2018-12-25T07:15:19.833Z,12.63
2018-12-25T07:18:24.766Z,12.70
2018-12-25T07:21:30.029Z,11.33
2018-12-25T07:24:35.235Z,12.20
2018-12-25T07:27:40.228Z,13.63
2018-12-25T07:30:45.012Z,11.73
2018-12-25T07:33:50.062Z,11.60
2018-12-25T07:36:54.715Z,11.53
2018-12-25T07:39:59.485Z,14.63
2018-12-25T07:43:04.523Z,11.77
2018-12-25T07:46:09.267Z,10.33
2018-12-25T07:49:14.365Z,10.97
2018-12-25T07:52:19.399Z,9.03
2018-12-25T07:55:27.259Z,11.60
2018-12-25T07:58:31.981Z,12.57
2018-12-25T08:01:36.745Z,11.40
2018-12-25T08:04:41.446Z,11.47
2018-12-25T08:07:46.075Z,11.70
2018-12-25T08:10:51.030Z,10.30
2018-12-25T08:13:55.762Z,14.33
2018-12-25T08:17:00.382Z,13.53
2018-12-25T08:20:07.629Z,10.30
2018-12-25T08:23:12.488Z,14.37
2018-12-25T08:26:17.154Z,11.10
2018-12-25T08:29:21.872Z,11.50
2018-12-25T08:32:27.065Z,12.40
2018-12-25T08:35:31.724Z,11.10
2018-12-25T08:38:36.363Z,13.43
2018-12-25T08:41:41.450Z,11.13
2018-12-25T08:44:46.395Z,12.27
2018-12-25T08:47:53.499Z,12.77
2018-12-25T08:50:58.920Z,13.70
2018-12-25T08:54:03.584Z,10.50
2018-12-25T08:57:08.396Z,13.53
2018-12-25T09:00:13.751Z,11.27
2018-12-25T09:03:18.393Z,10.40
2018-12-25T09:06:24.908Z,14.10
2018-12-25T09:09:29.591Z,10.00
2018-12-25T09:12:35.740Z,12.40
2018-12-25T09:15:40.757Z,10.77
2018-12-25T09:18:45.814Z,12.20
2018-12-25T09:21:50.938Z,12.13
2018-12-25T09:24:55.741Z,12.37
2018-12-25T09:28:00.398Z,11.67
2018-12-25T09:31:05.062Z,9.47
2018-12-25T09:34:09.999Z,10.38
2018-12-25T09:37:14.888Z,10.98
2018-12-25T09:40:19.574Z,14.83
2018-12-25T09:43:24.370Z,10.60
2018-12-25T09:46:28.983Z,11.07
2018-12-25T09:49:33.962Z,12.23
2018-12-25T09:52:38.897Z,12.85
2018-12-25T09:55:43.697Z,9.73
2018-12-25T09:58:48.331Z,9.53
2018-12-25T10:01:52.998Z,10.77
2018-12-25T10:04:57.624Z,10.40
2018-12-25T10:08:02.297Z,10.30
2018-12-25T10:11:07.006Z,11.43
2018-12-25T10:14:11.997Z,13.30
2018-12-25T10:17:16.925Z,12.23
2018-12-25T10:20:21.764Z,10.77
2018-12-25T10:23:26.398Z,10.63
2018-12-25T10:26:31.080Z,14.40
2018-12-25T10:29:35.729Z,12.10
2018-12-25T10:32:40.644Z,11.33
2018-12-25T10:35:45.239Z,11.93
2018-12-25T10:38:49.867Z,14.53
2018-12-25T10:41:54.553Z,12.17
2018-12-25T10:44:59.166Z,13.83
2018-12-25T10:48:04.129Z,9.70
2018-12-25T10:51:08.759Z,11.73
2018-12-25T10:54:13.389Z,10.67
2018-12-25T10:57:18.339Z,9.47
2018-12-25T11:00:23.263Z,9.63
2018-12-25T11:03:28.199Z,11.13
2018-12-25T11:06:33.018Z,10.33
2018-12-25T11:09:37.894Z,10.17
2018-12-25T11:12:42.518Z,9.53
2018-12-25T11:16:06.797Z,9.47
2018-12-25T11:19:23.406Z,13.80
2018-12-25T11:22:47.355Z,10.33
2018-12-25T11:26:11.321Z,10.93
2018-12-25T11:29:54.590Z,8.23
2018-12-25T11:33:18.540Z,10.07
2018-12-25T11:36:42.741Z,9.53
2018-12-25T11:40:06.726Z,8.47
2018-12-25T11:43:30.677Z,9.87
2018-12-25T11:46:54.649Z,10.40
2018-12-25T11:50:18.622Z,10.87
2018-12-25T11:57:25.814Z,10.70
2018-12-25T12:00:50.383Z,10.77
2018-12-25T12:11:27.377Z,10.07
2018-12-25T12:14:51.562Z,10.67
2018-12-25T12:18:08.584Z,8.57
2018-12-25T12:21:32.576Z,9.37
2018-12-25T12:24:56.494Z,9.17
2018-12-25T12:28:20.708Z,10.87
2018-12-25T12:31:25.563Z,9.63
2018-12-25T12:34:49.756Z,7.00
2018-12-25T12:38:14.067Z,10.10
2018-12-25T12:41:38.303Z,11.90
2018-12-25T12:48:45.530Z,5.17
2018-12-25T12:52:28.551Z,6.37
2018-12-25T12:55:52.499Z,7.00
2018-12-25T12:59:16.523Z,8.17
2018-12-25T13:02:40.726Z,7.50
2018-12-25T13:06:04.690Z,7.47
2018-12-25T13:12:58.593Z,9.50
2018-12-25T13:16:22.877Z,7.00
2018-12-25T13:19:40.314Z,7.83
2018-12-25T13:23:04.322Z,8.98
2018-12-25T13:26:28.276Z,7.27
2018-12-25T13:29:52.236Z,9.13
2018-12-25T13:33:16.232Z,9.13
2018-12-25T13:36:40.203Z,9.73
2018-12-25T13:43:54.742Z,8.53
2018-12-25T13:47:38.020Z,7.73
2018-12-25T13:51:02.026Z,8.10
2018-12-25T13:54:25.991Z,7.80
2018-12-25T13:57:49.947Z,9.70
2018-12-25T14:01:13.970Z,12.17
2018-12-25T14:04:38.270Z,10.70
2018-12-25T14:08:02.233Z,9.60
2018-12-25T14:14:56.355Z,7.63
2018-12-25T14:18:13.047Z,11.88
2018-12-25T14:21:37.519Z,9.10
2018-12-25T14:25:02.682Z,8.33
2018-12-25T14:28:26.656Z,14.17
2018-12-25T14:32:09.876Z,9.13
2018-12-25T14:35:34.179Z,12.17
2018-12-25T14:38:58.494Z,10.60
2018-12-25T14:42:22.481Z,10.17
2018-12-25T14:45:46.445Z,9.80
2018-12-25T14:49:10.438Z,8.73
2018-12-25T14:52:43.115Z,8.13
2018-12-25T14:56:07.071Z,10.50
2018-12-25T14:59:31.325Z,15.13
2018-12-25T15:06:25.208Z,7.67
2018-12-25T15:13:32.398Z,7.73
2018-12-25T15:20:16.835Z,6.83
2018-12-25T15:23:40.798Z,7.80
2018-12-25T15:27:04.767Z,7.60
2018-12-25T15:34:30.929Z,8.97
2018-12-25T15:37:54.895Z,8.67
2018-12-25T15:41:18.990Z,8.77
2018-12-25T15:44:43.278Z,7.77
2018-12-25T15:51:37.391Z,9.30
2018-12-25T15:55:01.368Z,12.97
2018-12-25T15:58:25.370Z,8.78
2018-12-25T16:02:08.677Z,8.40
2018-12-25T16:05:32.966Z,7.40
2018-12-25T16:08:37.614Z,11.10
2018-12-25T16:11:42.635Z,9.67
2018-12-25T16:15:07.136Z,9.93
2018-12-25T16:18:23.974Z,11.07
2018-12-25T16:21:48.106Z,9.23
2018-12-25T16:25:12.111Z,9.73
2018-12-25T16:28:55.365Z,12.60
2018-12-25T16:32:19.746Z,12.70
2018-12-25T16:35:43.720Z,12.07
2018-12-25T16:39:07.764Z,10.53
2018-12-25T16:42:31.740Z,13.90
2018-12-25T16:46:15.078Z,13.17
2018-12-25T16:49:58.087Z,12.57
2018-12-25T16:53:22.342Z,12.63
2018-12-25T17:00:29.563Z,23.70
2018-12-25T17:03:53.635Z,17.62
2018-12-25T17:07:36.698Z,15.27
2018-12-25T17:11:00.676Z,14.73
2018-12-25T17:14:05.366Z,17.00
2018-12-25T17:17:11.561Z,16.07
2018-12-25T17:20:16.206Z,14.03
2018-12-25T17:23:20.869Z,11.53
2018-12-25T17:26:25.870Z,11.50
2018-12-25T17:29:30.749Z,13.13
2018-12-25T17:32:38.150Z,12.40
2018-12-25T17:35:42.943Z,10.43
2018-12-25T17:38:47.909Z,10.47
2018-12-25T17:41:52.590Z,9.80
2018-12-25T17:44:57.374Z,10.90
2018-12-25T17:48:02.173Z,13.90
2018-12-25T17:51:07.055Z,12.90
2018-12-25T17:54:11.701Z,16.50
2018-12-25T17:57:19.260Z,16.70
2018-12-25T18:00:23.973Z,29.60
2018-12-25T18:03:28.621Z,60.20
2018-12-25T18:06:33.297Z,46.50
2018-12-25T18:09:38.008Z,23.13
2018-12-25T18:12:42.704Z,20.23
2018-12-25T18:15:47.583Z,20.97
2018-12-25T18:18:52.525Z,22.35
2018-12-25T18:21:57.191Z,14.98
2018-12-25T18:25:01.852Z,16.67
2018-12-25T18:28:06.747Z,14.60
2018-12-25T18:31:11.987Z,16.57
2018-12-25T18:34:16.889Z,15.97
2018-12-25T18:37:21.576Z,14.13
2018-12-25T18:40:26.814Z,15.37
2018-12-25T18:43:31.704Z,13.67
2018-12-25T18:46:36.493Z,14.10
2018-12-25T18:49:41.227Z,18.93
2018-12-25T18:52:46.210Z,17.63
2018-12-25T18:55:50.886Z,14.27
2018-12-25T18:58:57.497Z,16.23
2018-12-25T19:02:04.273Z,18.13
2018-12-25T19:05:08.832Z,13.83
2018-12-25T19:08:13.971Z,17.47
2018-12-25T19:11:18.617Z,13.53
2018-12-25T19:14:23.559Z,12.40
2018-12-25T19:17:28.286Z,13.18
2018-12-25T19:20:33.077Z,15.23
2018-12-25T19:23:39.016Z,12.73
2018-12-25T19:26:43.719Z,13.23
2018-12-25T19:33:23.876Z,14.37
2018-12-25T19:36:28.897Z,13.13
2018-12-25T19:39:33.556Z,18.77
2018-12-25T19:42:38.209Z,15.00
2018-12-25T19:45:44.959Z,17.13
2018-12-25T19:48:49.664Z,15.90
2018-12-25T19:51:54.615Z,17.10
2018-12-25T19:54:59.660Z,16.57
2018-12-25T19:58:04.750Z,16.27
2018-12-25T20:01:09.481Z,15.70
2018-12-25T20:04:21.643Z,14.33
2018-12-25T20:07:56.312Z,18.50
2018-12-25T20:11:30.008Z,16.87
2018-12-25T20:15:09.944Z,13.57
2018-12-25T20:18:48.024Z,14.20
2018-12-25T20:22:28.767Z,15.47
2018-12-25T20:26:19.968Z,15.93
2018-12-25T20:30:13.567Z,16.03
2018-12-25T20:34:09.384Z,14.37
2018-12-25T20:37:46.219Z,17.73
2018-12-25T20:41:07.427Z,16.90
2018-12-25T20:44:54.489Z,20.70
2018-12-25T20:48:31.002Z,18.07
2018-12-25T20:52:13.476Z,21.50
2018-12-25T20:55:29.159Z,18.30
2018-12-25T20:59:00.584Z,16.60
2018-12-25T21:02:15.722Z,18.97
2018-12-25T21:05:59.673Z,16.70
2018-12-25T21:09:47.919Z,17.50
2018-12-25T21:13:42.288Z,21.03
2018-12-25T21:17:18.620Z,18.40
2018-12-25T21:20:52.141Z,21.83
2018-12-25T21:24:51.677Z,18.10
2018-12-25T21:27:54.882Z,15.80
2018-12-25T21:31:00.013Z,13.97
2018-12-25T21:34:05.659Z,16.63
2018-12-25T21:37:19.705Z,16.77
2018-12-25T21:41:31.966Z,16.60
2018-12-25T21:44:40.220Z,16.27
2018-12-25T21:47:45.335Z,16.83
2018-12-25T21:50:50.226Z,19.33
2018-12-25T21:53:54.999Z,16.67
2018-12-25T21:56:59.682Z,18.47
2018-12-25T22:00:07.314Z,18.97
2018-12-25T22:03:12.091Z,16.87
2018-12-25T22:06:16.901Z,19.47
2018-12-25T22:09:21.591Z,15.10
2018-12-25T22:12:26.487Z,19.07
2018-12-25T22:15:31.180Z,19.27
2018-12-25T22:18:36.171Z,17.00
2018-12-25T22:21:40.823Z,17.23
2018-12-25T22:24:45.524Z,16.30
2018-12-25T22:27:50.562Z,16.67
2018-12-25T22:30:55.613Z,18.47
2018-12-25T22:34:00.286Z,19.37
2018-12-25T22:37:05.136Z,20.27
2018-12-25T22:40:09.743Z,22.00
2018-12-25T22:43:14.434Z,18.43
2018-12-25T22:46:19.254Z,22.77
2018-12-25T22:49:23.926Z,19.23
2018-12-25T22:52:28.897Z,20.35
2018-12-25T22:55:35.999Z,19.83
2018-12-25T22:58:40.091Z,13.83
2018-12-25T23:01:45.071Z,14.33
2018-12-25T23:04:50.006Z,17.97
2018-12-25T23:07:55.041Z,20.12
2018-12-25T23:10:59.689Z,18.83
2018-12-25T23:17:35.114Z,19.90
2018-12-25T23:20:52.421Z,19.67
2018-12-25T23:24:16.406Z,17.40
2018-12-25T23:27:40.452Z,18.57
2018-12-25T23:31:04.436Z,18.83
2018-12-25T23:34:28.474Z,15.93
2018-12-25T23:37:52.601Z,18.97
2018-12-25T23:44:59.595Z,15.53
2018-12-25T23:48:23.566Z,16.60
2018-12-25T23:51:47.551Z,17.00
2018-12-25T23:55:11.886Z,18.57
2018-12-25T23:58:35.876Z,17.80
